Time;durP1;ratioP1;P1;durP2;ratioP2;P2;SDS_P1;SDS_P2;PMS_P1;PMS_P2;Temp;Humidity;BMP_temperature;BMP_pressure;BME280_temperature;BME280_humidity;BME280_pressure;Samples;Min_cycle;Max_cycle;Signal;HPM_P1;HPM_P2
2021/04/28 00:00:27;;;;;;;;;;;21.30;30.50;;;;;;458522;259;1587;-73
2021/04/28 00:02:29;;;;;;;;;;;21.30;30.50;;;;;;460810;259;1101;-73
2021/04/28 00:04:30;;;;;;;;;;;21.30;30.50;;;;;;452998;260;958;-72
2021/04/28 00:06:31;;;;;;;;;;;21.30;30.50;;;;;;458657;259;1340;-73
2021/04/28 00:08:33;;;;;;;;;;;21.30;30.40;;;;;;460821;259;963;-73
2021/04/28 00:10:34;;;;;;;;;;;21.30;30.40;;;;;;452995;262;977;-73
2021/04/28 00:12:35;;;;;;;;;;;21.40;30.50;;;;;;458519;259;1736;-73
2021/04/28 00:14:36;;;;;;;;;;;21.40;30.30;;;;;;460820;259;2209;-73
2021/04/28 00:16:38;;;;;;;;;;;21.40;30.30;;;;;;452895;262;1222;-73
2021/04/28 00:18:39;;;;;;;;;;;21.40;30.30;;;;;;458612;259;1088;-73
2021/04/28 00:20:41;;;;;;;;;;;21.50;30.30;;;;;;460758;259;1250;-73
2021/04/28 00:22:42;;;;;;;;;;;21.50;30.20;;;;;;452846;262;1411;-73
2021/04/28 00:24:43;;;;;;;;;;;21.50;30.20;;;;;;458635;259;1011;-73
2021/04/28 00:26:44;;;;;;;;;;;21.40;30.30;;;;;;460786;259;1170;-72
2021/04/28 00:28:45;;;;;;;;;;;21.40;30.40;;;;;;452871;262;1001;-73
2021/04/28 00:30:47;;;;;;;;;;;21.30;30.40;;;;;;458686;259;1196;-73
2021/04/28 00:32:49;;;;;;;;;;;21.40;30.30;;;;;;460807;255;1236;-73
2021/04/28 00:34:50;;;;;;;;;;;21.40;30.20;;;;;;452918;263;2209;-73
2021/04/28 00:36:51;;;;;;;;;;;21.30;30.30;;;;;;458578;256;1246;-73
2021/04/28 00:38:52;;;;;;;;;;;21.30;30.50;;;;;;460859;259;951;-73
2021/04/28 00:40:53;;;;;;;;;;;21.30;30.50;;;;;;453003;262;1221;-72
2021/04/28 00:42:55;;;;;;;;;;;21.50;30.20;;;;;;458675;259;1292;-73
2021/04/28 00:44:56;;;;;;;;;;;21.60;30.10;;;;;;460816;259;972;-73
2021/04/28 00:46:57;;;;;;;;;;;21.70;30.00;;;;;;458546;259;1369;-73
2021/04/28 00:48:59;;;;;;;;;;;21.70;30.00;;;;;;460812;259;987;-73
2021/04/28 00:51:00;;;;;;;;;;;21.80;30.00;;;;;;458570;259;1318;-72
2021/04/28 00:53:01;;;;;;;;;;;21.70;30.00;;;;;;460791;259;1015;-73
2021/04/28 00:55:02;;;;;;;;;;;21.60;30.00;;;;;;452868;262;2217;-73
2021/04/28 00:57:04;;;;;;;;;;;21.70;30.00;;;;;;458691;259;970;-72
2021/04/28 00:59:05;;;;;;;;;;;21.60;30.00;;;;;;460808;258;1136;-72
2021/04/28 01:01:06;;;;;;;;;;;21.70;30.00;;;;;;458655;259;1083;-73
2021/04/28 01:03:08;;;;;;;;;;;21.60;30.00;;;;;;460846;259;1014;-73
2021/04/28 01:05:09;;;;;;;;;;;21.60;30.00;;;;;;453010;262;1032;-73
2021/04/28 01:07:10;;;;;;;;;;;21.60;30.10;;;;;;458634;259;1133;-73
2021/04/28 01:09:11;;;;;;;;;;;21.60;30.00;;;;;;460809;259;1000;-73
2021/04/28 01:11:13;;;;;;;;;;;21.60;30.10;;;;;;452867;262;1167;-73
2021/04/28 01:13:14;;;;;;;;;;;21.60;30.10;;;;;;458633;256;1168;-73
2021/04/28 01:15:15;;;;;;;;;;;21.50;30.00;;;;;;460781;259;2231;-73
2021/04/28 01:17:17;;;;;;;;;;;21.60;30.10;;;;;;458527;256;1334;-73
2021/04/28 01:19:18;;;;;;;;;;;21.60;30.00;;;;;;467046;255;1131;-73
2021/04/28 01:21:19;;;;;;;;;;;21.60;30.00;;;;;;458964;257;1241;-73
2021/04/28 01:23:21;;;;;;;;;;;21.60;30.00;;;;;;463071;257;1154;-73
2021/04/28 01:25:22;;;;;;;;;;;21.60;30.00;;;;;;467160;255;961;-73
2021/04/28 01:27:23;;;;;;;;;;;21.70;30.00;;;;;;463385;254;1156;-73
2021/04/28 01:29:24;;;;;;;;;;;21.60;30.00;;;;;;459001;260;964;-73
2021/04/28 01:31:26;;;;;;;;;;;21.60;30.00;;;;;;463304;256;1226;-73
2021/04/28 01:33:27;;;;;;;;;;;21.50;30.00;;;;;;459098;260;960;-73
2021/04/28 01:35:28;;;;;;;;;;;21.60;30.10;;;;;;463116;257;2216;-73
2021/04/28 01:37:29;;;;;;;;;;;21.60;30.00;;;;;;467154;255;1181;-73
2021/04/28 01:39:31;;;;;;;;;;;21.60;30.00;;;;;;463304;256;1296;-73
2021/04/28 01:41:32;;;;;;;;;;;21.50;30.00;;;;;;458947;259;1437;-72
2021/04/28 01:43:33;;;;;;;;;;;21.50;30.00;;;;;;462971;257;1115;-73
2021/04/28 01:45:35;;;;;;;;;;;21.60;30.10;;;;;;467032;255;998;-73
2021/04/28 01:47:36;;;;;;;;;;;21.60;30.10;;;;;;463338;255;1044;-73
2021/04/28 01:49:37;;;;;;;;;;;21.50;30.00;;;;;;459027;259;964;-73
2021/04/28 01:51:38;;;;;;;;;;;21.50;30.00;;;;;;463127;255;1051;-73
2021/04/28 01:53:40;;;;;;;;;;;21.50;30.10;;;;;;467093;255;1198;-73
2021/04/28 01:55:41;;;;;;;;;;;21.50;30.00;;;;;;463348;257;2215;-73
2021/04/28 01:57:43;;;;;;;;;;;21.50;30.00;;;;;;458999;260;1124;-73
2021/04/28 01:59:44;;;;;;;;;;;21.50;30.10;;;;;;463038;257;972;-73
2021/04/28 02:01:45;;;;;;;;;;;21.40;30.20;;;;;;467071;255;1127;-73
2021/04/28 02:03:46;;;;;;;;;;;21.50;30.10;;;;;;463358;257;1142;-73
2021/04/28 02:05:48;;;;;;;;;;;21.50;30.10;;;;;;458945;259;1040;-73
2021/04/28 02:07:49;;;;;;;;;;;21.50;30.10;;;;;;462924;257;1158;-73
2021/04/28 02:09:50;;;;;;;;;;;21.40;30.10;;;;;;467023;255;1076;-73
2021/04/28 02:11:52;;;;;;;;;;;21.40;30.10;;;;;;463277;257;1065;-73
2021/04/28 02:13:53;;;;;;;;;;;21.50;30.10;;;;;;462930;257;993;-73
2021/04/28 02:15:54;;;;;;;;;;;21.50;30.10;;;;;;466990;255;2196;-73
2021/04/28 02:17:56;;;;;;;;;;;21.40;30.10;;;;;;459044;258;1287;-73
2021/04/28 02:19:57;;;;;;;;;;;21.40;30.20;;;;;;463175;257;1016;-73
2021/04/28 02:21:58;;;;;;;;;;;21.40;30.10;;;;;;467196;255;1027;-73
2021/04/28 02:23:59;;;;;;;;;;;21.30;30.10;;;;;;458938;259;1250;-73
2021/04/28 02:26:01;;;;;;;;;;;21.40;30.10;;;;;;463098;257;984;-73
2021/04/28 02:28:02;;;;;;;;;;;21.40;30.10;;;;;;467034;255;967;-73
2021/04/28 02:30:03;;;;;;;;;;;21.30;30.10;;;;;;458987;259;973;-73
2021/04/28 02:32:04;;;;;;;;;;;21.40;30.10;;;;;;462898;257;1063;-73
2021/04/28 02:34:06;;;;;;;;;;;21.40;30.10;;;;;;467003;255;980;-73
2021/04/28 02:36:07;;;;;;;;;;;21.30;30.10;;;;;;458944;258;2193;-73
2021/04/28 02:38:08;;;;;;;;;;;21.30;30.20;;;;;;462965;257;1135;-73
2021/04/28 02:40:10;;;;;;;;;;;21.30;30.20;;;;;;467010;255;1030;-73
2021/04/28 02:42:11;;;;;;;;;;;21.30;30.10;;;;;;459006;256;1184;-73
2021/04/28 02:44:12;;;;;;;;;;;21.30;30.20;;;;;;463334;255;1061;-73
2021/04/28 02:46:13;;;;;;;;;;;21.20;30.20;;;;;;459041;259;1286;-73
2021/04/28 02:48:15;;;;;;;;;;;21.20;30.30;;;;;;463318;257;953;-73
2021/04/28 02:50:16;;;;;;;;;;;21.30;30.30;;;;;;458945;259;1200;-73
2021/04/28 02:52:17;;;;;;;;;;;21.20;30.20;;;;;;462960;253;1138;-73
2021/04/28 02:54:19;;;;;;;;;;;21.10;30.20;;;;;;467065;255;1198;-73
2021/04/28 02:56:20;;;;;;;;;;;21.10;30.20;;;;;;463302;257;2178;-73
2021/04/28 02:58:21;;;;;;;;;;;21.20;30.30;;;;;;458937;260;1063;-73
2021/04/28 03:00:22;;;;;;;;;;;21.20;30.10;;;;;;462987;257;976;-73
2021/04/28 03:02:24;;;;;;;;;;;21.20;30.20;;;;;;467062;255;1141;-72
2021/04/28 03:04:25;;;;;;;;;;;21.20;30.20;;;;;;463032;257;1052;-73
2021/04/28 03:06:26;;;;;;;;;;;21.10;30.20;;;;;;467060;252;1218;-73
2021/04/28 03:08:28;;;;;;;;;;;21.10;30.20;;;;;;459071;258;1169;-74
2021/04/28 03:10:29;;;;;;;;;;;21.10;30.20;;;;;;463010;257;1044;-73
2021/04/28 03:12:30;;;;;;;;;;;21.10;30.30;;;;;;467135;255;1175;-73
2021/04/28 03:14:31;;;;;;;;;;;21.10;30.30;;;;;;463153;257;1290;-73
2021/04/28 03:16:33;;;;;;;;;;;21.10;30.30;;;;;;467086;252;2213;-73
2021/04/28 03:18:34;;;;;;;;;;;21.10;30.20;;;;;;463345;257;953;-73
2021/04/28 03:20:36;;;;;;;;;;;21.10;30.20;;;;;;458972;259;1066;-72
2021/04/28 03:22:37;;;;;;;;;;;21.10;30.20;;;;;;463014;257;1166;-73
2021/04/28 03:24:38;;;;;;;;;;;21.10;30.30;;;;;;467092;255;1252;-73
2021/04/28 03:26:39;;;;;;;;;;;21.10;30.10;;;;;;458998;258;1082;-73
2021/04/28 03:28:41;;;;;;;;;;;21.10;30.10;;;;;;462938;257;1090;-73
2021/04/28 03:30:42;;;;;;;;;;;21.10;30.20;;;;;;467035;255;966;-73
2021/04/28 03:32:43;;;;;;;;;;;21.10;30.20;;;;;;463365;255;1500;-73
2021/04/28 03:34:45;;;;;;;;;;;21.10;30.20;;;;;;458952;259;994;-73
2021/04/28 03:36:46;;;;;;;;;;;21.00;30.20;;;;;;462973;257;2241;-73
2021/04/28 03:38:47;;;;;;;;;;;21.10;30.20;;;;;;467044;255;1423;-73
2021/04/28 03:40:48;;;;;;;;;;;21.10;30.20;;;;;;459078;258;1137;-73
2021/04/28 03:42:50;;;;;;;;;;;21.10;30.10;;;;;;463073;257;1057;-73
2021/04/28 03:44:52;;;;;;;;;;;21.20;30.00;;;;;;467149;255;975;-73
2021/04/28 03:46:53;;;;;;;;;;;21.10;30.00;;;;;;463305;253;1250;-73
2021/04/28 03:48:54;;;;;;;;;;;21.10;30.00;;;;;;459036;258;985;-72
2021/04/28 03:50:56;;;;;;;;;;;21.10;30.00;;;;;;462942;257;1188;-73
2021/04/28 03:52:57;;;;;;;;;;;21.20;30.00;;;;;;467059;255;1143;-73
2021/04/28 03:54:58;;;;;;;;;;;21.20;30.00;;;;;;463373;257;1211;-73
2021/04/28 03:56:59;;;;;;;;;;;21.10;30.00;;;;;;458889;256;2197;-73
2021/04/28 03:59:01;;;;;;;;;;;21.00;30.10;;;;;;462954;257;1028;-73
2021/04/28 04:01:02;;;;;;;;;;;21.10;30.10;;;;;;466984;252;1155;-73
2021/04/28 04:03:04;;;;;;;;;;;21.10;30.00;;;;;;463388;253;1126;-73
2021/04/28 04:05:05;;;;;;;;;;;21.10;30.00;;;;;;458995;259;978;-73
2021/04/28 04:07:07;;;;;;;;;;;21.10;30.00;;;;;;463082;257;1228;-73
2021/04/28 04:09:08;;;;;;;;;;;21.10;30.00;;;;;;467151;255;1194;-73
2021/04/28 04:11:09;;;;;;;;;;;21.10;30.00;;;;;;463096;257;965;-73
2021/04/28 04:13:10;;;;;;;;;;;21.20;30.00;;;;;;467108;255;1003;-73
2021/04/28 04:15:12;;;;;;;;;;;21.20;29.90;;;;;;459078;258;990;-73
2021/04/28 04:17:13;;;;;;;;;;;21.20;30.00;;;;;;463029;257;2191;-73
2021/04/28 04:19:14;;;;;;;;;;;21.20;30.00;;;;;;467044;255;1233;-73
2021/04/28 04:21:15;;;;;;;;;;;21.20;30.00;;;;;;459073;257;1259;-73
2021/04/28 04:23:17;;;;;;;;;;;21.20;29.90;;;;;;463428;255;1059;-73
2021/04/28 04:25:18;;;;;;;;;;;21.20;29.90;;;;;;459051;259;1215;-73
2021/04/28 04:27:19;;;;;;;;;;;21.20;30.00;;;;;;463049;255;1278;-73
2021/04/28 04:29:21;;;;;;;;;;;21.20;30.00;;;;;;467149;255;1261;-73
2021/04/28 04:31:22;;;;;;;;;;;21.10;30.00;;;;;;463271;257;1198;-73
2021/04/28 04:33:23;;;;;;;;;;;21.20;30.00;;;;;;458938;259;1201;-73
2021/04/28 04:35:24;;;;;;;;;;;21.20;30.00;;;;;;463073;257;992;-73
2021/04/28 04:37:26;;;;;;;;;;;21.10;30.00;;;;;;467045;255;2200;-73
2021/04/28 04:39:27;;;;;;;;;;;21.10;30.00;;;;;;458977;259;1180;-73
2021/04/28 04:41:28;;;;;;;;;;;21.20;30.00;;;;;;462950;257;1344;-73
2021/04/28 04:43:30;;;;;;;;;;;21.10;30.00;;;;;;467110;255;1004;-73
2021/04/28 04:45:33;;;;;;;;;;;21.20;30.00;;;;;;463269;257;1091;-73
2021/04/28 04:47:34;;;;;;;;;;;21.10;30.00;;;;;;458884;259;1480;-73
2021/04/28 04:49:38;;;;;;;;;;;21.10;30.00;;;;;;462817;257;1063;-73
2021/04/28 04:51:36;;;;;;;;;;;21.10;30.00;;;;;;466760;254;1437;-73
2021/04/28 04:53:38;;;;;;;;;;;21.10;30.00;;;;;;463147;257;1003;-73
2021/04/28 04:55:39;;;;;;;;;;;21.10;30.00;;;;;;458861;259;1221;-73
2021/04/28 04:57:40;;;;;;;;;;;21.10;30.00;;;;;;462925;257;2151;-73
2021/04/28 04:59:42;;;;;;;;;;;21.20;30.00;;;;;;467042;255;965;-73
2021/04/28 05:01:43;;;;;;;;;;;21.20;30.00;;;;;;463352;255;1063;-73
2021/04/28 05:03:44;;;;;;;;;;;21.10;30.00;;;;;;458898;259;1052;-73
2021/04/28 05:05:45;;;;;;;;;;;21.10;30.00;;;;;;462890;257;1116;-73
2021/04/28 05:07:47;;;;;;;;;;;21.20;30.00;;;;;;466961;255;1019;-73
2021/04/28 05:09:48;;;;;;;;;;;21.20;30.00;;;;;;458885;258;1181;-73
2021/04/28 05:11:49;;;;;;;;;;;21.20;29.90;;;;;;462843;254;1187;-73
2021/04/28 05:13:51;;;;;;;;;;;21.30;29.80;;;;;;466949;252;1265;-73
2021/04/28 05:15:52;;;;;;;;;;;21.40;29.80;;;;;;458836;257;1067;-73
2021/04/28 05:17:57;;;;;;;;;;;21.40;29.70;;;;;;462965;257;2199;-73
2021/04/28 05:19:56;;;;;;;;;;;21.40;29.70;;;;;;466722;255;1335;-73
2021/04/28 05:21:57;;;;;;;;;;;21.50;29.70;;;;;;463150;254;1247;-72
2021/04/28 05:23:58;;;;;;;;;;;21.50;29.70;;;;;;458964;257;1185;-73
2021/04/28 05:26:00;;;;;;;;;;;21.50;29.60;;;;;;462846;257;1339;-73
2021/04/28 05:28:01;;;;;;;;;;;21.50;29.70;;;;;;466977;255;1148;-73
2021/04/28 05:30:02;;;;;;;;;;;21.60;29.60;;;;;;458885;258;1043;-73
2021/04/28 05:32:04;;;;;;;;;;;21.60;29.60;;;;;;462859;253;1529;-73
2021/04/28 05:34:05;;;;;;;;;;;21.60;29.50;;;;;;466922;255;956;-73
2021/04/28 05:36:06;;;;;;;;;;;21.70;29.60;;;;;;458747;258;1414;-73
2021/04/28 05:38:07;;;;;;;;;;;21.60;29.60;;;;;;462843;257;2202;-73
2021/04/28 05:40:09;;;;;;;;;;;21.70;29.50;;;;;;466844;255;1185;-73
2021/04/28 05:42:10;;;;;;;;;;;21.70;29.60;;;;;;458748;258;1184;-73
2021/04/28 05:44:11;;;;;;;;;;;21.80;29.50;;;;;;462858;257;1046;-73
2021/04/28 05:46:13;;;;;;;;;;;21.80;29.50;;;;;;466854;255;1167;-73
2021/04/28 05:48:14;;;;;;;;;;;21.80;29.60;;;;;;458829;258;1336;-73
2021/04/28 05:50:15;;;;;;;;;;;21.80;29.50;;;;;;462867;257;1013;-73
2021/04/28 05:52:16;;;;;;;;;;;21.90;29.50;;;;;;466871;255;1156;-73
2021/04/28 05:54:18;;;;;;;;;;;21.90;29.50;;;;;;458825;258;1014;-73
2021/04/28 05:56:19;;;;;;;;;;;21.90;29.50;;;;;;462809;257;1326;-73
2021/04/28 05:58:20;;;;;;;;;;;21.90;29.50;;;;;;466950;255;2130;-73
2021/04/28 06:00:21;;;;;;;;;;;21.90;29.60;;;;;;458796;258;1332;-73
2021/04/28 06:02:23;;;;;;;;;;;21.80;29.70;;;;;;462768;257;1160;-73
2021/04/28 06:04:24;;;;;;;;;;;21.70;29.80;;;;;;466747;255;1047;-73
2021/04/28 06:06:25;;;;;;;;;;;21.70;29.80;;;;;;458689;258;1260;-73
2021/04/28 06:08:27;;;;;;;;;;;21.70;29.90;;;;;;462642;257;1537;-73
2021/04/28 06:10:28;;;;;;;;;;;21.60;29.90;;;;;;466623;255;1308;-73
2021/04/28 06:12:29;;;;;;;;;;;21.60;30.00;;;;;;458738;258;1224;-73
2021/04/28 06:14:30;;;;;;;;;;;21.50;30.00;;;;;;462741;257;1052;-73
2021/04/28 06:16:32;;;;;;;;;;;21.50;30.10;;;;;;466750;255;2200;-73
2021/04/28 06:18:33;;;;;;;;;;;21.50;30.20;;;;;;462840;257;1002;-73
2021/04/28 06:20:34;;;;;;;;;;;21.50;30.20;;;;;;466823;255;1194;-73
2021/04/28 06:22:36;;;;;;;;;;;21.50;30.30;;;;;;458729;258;1053;-73
2021/04/28 06:24:37;;;;;;;;;;;21.50;30.20;;;;;;462570;257;1089;-73
2021/04/28 06:26:40;;;;;;;;;;;21.50;30.20;;;;;;466571;255;1276;-73
2021/04/28 06:28:42;;;;;;;;;;;21.50;30.20;;;;;;458492;259;1537;-73
2021/04/28 06:30:41;;;;;;;;;;;21.60;30.20;;;;;;462471;250;1448;-73
2021/04/28 06:32:43;;;;;;;;;;;21.60;30.20;;;;;;466658;255;1145;-73
2021/04/28 06:34:44;;;;;;;;;;;21.60;30.20;;;;;;458675;259;1458;-73
2021/04/28 06:36:45;;;;;;;;;;;21.70;30.20;;;;;;463002;255;2273;-73
2021/04/28 06:38:46;;;;;;;;;;;21.70;30.10;;;;;;458513;260;1061;-73
2021/04/28 06:40:48;;;;;;;;;;;21.70;30.10;;;;;;462512;253;1321;-73
2021/04/28 06:42:49;;;;;;;;;;;21.70;30.20;;;;;;466695;255;1400;-73
2021/04/28 06:44:50;;;;;;;;;;;21.70;30.30;;;;;;462916;257;1187;-73
2021/04/28 06:46:51;;;;;;;;;;;21.70;30.20;;;;;;458644;257;1145;-73
2021/04/28 06:48:53;;;;;;;;;;;21.80;30.30;;;;;;462633;257;995;-73
2021/04/28 06:50:54;;;;;;;;;;;21.80;30.30;;;;;;466773;255;1211;-73
2021/04/28 06:52:55;;;;;;;;;;;21.80;30.30;;;;;;458757;258;1080;-73
2021/04/28 06:54:57;;;;;;;;;;;21.80;30.40;;;;;;462506;257;1062;-73
2021/04/28 06:56:58;;;;;;;;;;;21.80;30.40;;;;;;466615;255;2196;-73
2021/04/28 06:59:00;;;;;;;;;;;21.80;30.30;;;;;;458480;258;1108;-73
2021/04/28 07:01:01;;;;;;;;;;;21.80;30.40;;;;;;462248;257;1214;-73
2021/04/28 07:03:02;;;;;;;;;;;21.80;30.40;;;;;;466484;255;1056;-73
2021/04/28 07:05:03;;;;;;;;;;;21.80;30.60;;;;;;458410;258;1035;-73
2021/04/28 07:07:05;;;;;;;;;;;21.80;30.60;;;;;;462493;257;1227;-73
2021/04/28 07:09:06;;;;;;;;;;;21.70;30.70;;;;;;466695;255;1085;-73
2021/04/28 07:11:07;;;;;;;;;;;21.70;30.70;;;;;;458441;257;1243;-73
2021/04/28 07:13:08;;;;;;;;;;;21.70;30.60;;;;;;462478;257;1107;-73
2021/04/28 07:15:10;;;;;;;;;;;21.70;30.70;;;;;;466423;255;1003;-73
2021/04/28 07:17:11;;;;;;;;;;;21.80;30.60;;;;;;462431;254;2218;-73
2021/04/28 07:19:12;;;;;;;;;;;21.80;30.70;;;;;;466506;252;1088;-73
2021/04/28 07:21:13;;;;;;;;;;;21.80;30.60;;;;;;458381;258;1466;-73
2021/04/28 07:23:15;;;;;;;;;;;21.80;30.70;;;;;;462488;257;1094;-73
2021/04/28 07:25:16;;;;;;;;;;;21.80;30.80;;;;;;466546;255;1005;-73
2021/04/28 07:27:18;;;;;;;;;;;21.80;30.80;;;;;;458454;258;1146;-73
2021/04/28 07:29:19;;;;;;;;;;;21.80;30.90;;;;;;462482;257;1017;-73
2021/04/28 07:31:20;;;;;;;;;;;21.80;31.00;;;;;;466480;252;1168;-73
2021/04/28 07:33:21;;;;;;;;;;;21.80;31.10;;;;;;458518;258;1063;-73
2021/04/28 07:35:23;;;;;;;;;;;21.70;31.20;;;;;;462457;257;1223;-73
2021/04/28 07:37:24;;;;;;;;;;;21.70;31.20;;;;;;466514;255;2189;-73
2021/04/28 07:39:25;;;;;;;;;;;21.80;31.30;;;;;;458501;259;1003;-74
2021/04/28 07:41:27;;;;;;;;;;;21.80;31.20;;;;;;462537;257;1389;-73
2021/04/28 07:43:28;;;;;;;;;;;21.80;31.20;;;;;;466537;255;1263;-73
2021/04/28 07:45:29;;;;;;;;;;;21.80;31.20;;;;;;458370;258;1258;-73
2021/04/28 07:47:31;;;;;;;;;;;21.80;31.20;;;;;;462531;257;1134;-73
2021/04/28 07:49:32;;;;;;;;;;;21.80;31.40;;;;;;466525;255;988;-73
2021/04/28 07:51:33;;;;;;;;;;;21.70;31.50;;;;;;458421;258;1106;-73
2021/04/28 07:53:35;;;;;;;;;;;21.80;31.50;;;;;;462489;257;1035;-73
2021/04/28 07:55:37;;;;;;;;;;;21.70;31.50;;;;;;466399;255;1390;-73
2021/04/28 07:57:37;;;;;;;;;;;21.80;31.50;;;;;;458397;259;2186;-73
2021/04/28 07:59:38;;;;;;;;;;;21.80;31.50;;;;;;462121;257;1227;-73
2021/04/28 08:01:40;;;;;;;;;;;21.80;31.40;;;;;;466420;255;1378;-73
2021/04/28 08:03:41;;;;;;;;;;;21.80;31.40;;;;;;458529;258;1111;-73
2021/04/28 08:05:42;;;;;;;;;;;21.80;31.60;;;;;;462414;257;1236;-73
2021/04/28 08:07:44;;;;;;;;;;;21.70;31.60;;;;;;466431;252;1167;-73
2021/04/28 08:09:46;;;;;;;;;;;21.70;31.70;;;;;;462799;257;1104;-73
2021/04/28 08:11:47;;;;;;;;;;;21.70;31.70;;;;;;458417;259;1371;-73
2021/04/28 08:13:48;;;;;;;;;;;21.80;31.80;;;;;;462754;257;1028;-73
2021/04/28 08:15:49;;;;;;;;;;;21.70;31.70;;;;;;458431;260;1226;-73
2021/04/28 08:17:50;;;;;;;;;;;21.80;31.80;;;;;;462428;257;2148;-73
2021/04/28 08:19:52;;;;;;;;;;;21.80;31.80;;;;;;466187;255;1068;-74
2021/04/28 08:21:53;;;;;;;;;;;21.80;31.80;;;;;;462650;255;1234;-73
2021/04/28 08:23:54;;;;;;;;;;;21.80;31.80;;;;;;458317;259;1134;-73
2021/04/28 08:25:56;;;;;;;;;;;21.80;31.90;;;;;;462333;257;1136;-73
2021/04/28 08:27:59;;;;;;;;;;;21.80;31.80;;;;;;466484;255;1091;-73
2021/04/28 08:29:58;;;;;;;;;;;21.80;31.80;;;;;;462133;257;1337;-73
2021/04/28 08:31:59;;;;;;;;;;;21.80;31.80;;;;;;466270;255;1285;-73
2021/04/28 08:34:01;;;;;;;;;;;21.80;31.80;;;;;;458446;259;1077;-73
2021/04/28 08:36:02;;;;;;;;;;;21.80;31.80;;;;;;462864;255;1159;-73
2021/04/28 08:38:03;;;;;;;;;;;21.90;31.80;;;;;;458501;259;2139;-73
2021/04/28 08:40:05;;;;;;;;;;;21.80;31.90;;;;;;462352;257;1078;-73
2021/04/28 08:42:06;;;;;;;;;;;21.90;31.90;;;;;;466453;255;1247;-73
2021/04/28 08:44:07;;;;;;;;;;;21.80;32.00;;;;;;462510;257;1212;-73
2021/04/28 08:46:08;;;;;;;;;;;21.80;31.90;;;;;;466597;255;1166;-73
2021/04/28 08:48:10;;;;;;;;;;;21.90;32.00;;;;;;462493;257;1088;-73
2021/04/28 08:50:11;;;;;;;;;;;21.90;32.10;;;;;;466376;255;1159;-73
2021/04/28 08:52:12;;;;;;;;;;;21.90;32.10;;;;;;458317;258;1138;-73
2021/04/28 08:54:13;;;;;;;;;;;21.90;32.10;;;;;;462773;257;1044;-73
2021/04/28 08:56:15;;;;;;;;;;;21.90;32.10;;;;;;458463;256;1215;-73
2021/04/28 08:58:16;;;;;;;;;;;21.90;32.10;;;;;;462485;257;2203;-73
2021/04/28 09:00:18;;;;;;;;;;;21.90;32.10;;;;;;466451;255;1095;-73
2021/04/28 09:02:22;;;;;;;;;;;22.00;32.10;;;;;;462484;257;1176;-73
2021/04/28 09:04:23;;;;;;;;;;;22.00;32.20;;;;;;466499;255;1275;-73
2021/04/28 09:06:22;;;;;;;;;;;22.00;32.20;;;;;;458312;259;1476;-73
2021/04/28 09:08:23;;;;;;;;;;;22.00;32.30;;;;;;462562;257;1065;-73
2021/04/28 09:10:25;;;;;;;;;;;22.00;32.30;;;;;;466573;255;1077;-73
2021/04/28 09:12:26;;;;;;;;;;;21.90;32.30;;;;;;458550;259;1105;-73
2021/04/28 09:14:28;;;;;;;;;;;21.90;32.30;;;;;;462423;257;1146;-73
2021/04/28 09:16:29;;;;;;;;;;;22.00;32.30;;;;;;466540;255;1179;-73
2021/04/28 09:18:30;;;;;;;;;;;22.00;32.30;;;;;;458451;258;2186;-73
2021/04/28 09:20:33;;;;;;;;;;;22.00;32.30;;;;;;462347;257;1126;-73
2021/04/28 09:22:33;;;;;;;;;;;22.00;32.30;;;;;;466425;255;1407;-73
2021/04/28 09:24:34;;;;;;;;;;;22.00;32.30;;;;;;462500;257;964;-73
2021/04/28 09:26:35;;;;;;;;;;;22.00;32.30;;;;;;466635;255;1197;-73
2021/04/28 09:28:37;;;;;;;;;;;22.00;32.30;;;;;;462366;257;1189;-73
2021/04/28 09:30:38;;;;;;;;;;;22.10;32.30;;;;;;466267;252;1343;-73
2021/04/28 09:32:39;;;;;;;;;;;22.00;32.30;;;;;;458371;259;1217;-73
2021/04/28 09:34:40;;;;;;;;;;;22.10;32.40;;;;;;462477;257;1023;-73
2021/04/28 09:36:42;;;;;;;;;;;22.10;32.30;;;;;;466468;252;1355;-73
2021/04/28 09:38:43;;;;;;;;;;;22.10;32.40;;;;;;462489;257;2187;-73
2021/04/28 09:40:44;;;;;;;;;;;22.00;32.40;;;;;;466501;255;1275;-73
2021/04/28 09:42:46;;;;;;;;;;;22.00;32.50;;;;;;458498;257;1130;-73
2021/04/28 09:44:48;;;;;;;;;;;21.90;32.60;;;;;;462692;255;1168;-73
2021/04/28 09:46:49;;;;;;;;;;;21.90;32.80;;;;;;458263;260;1303;-73
2021/04/28 09:48:50;;;;;;;;;;;21.80;32.80;;;;;;462720;257;1448;-73
2021/04/28 09:50:51;;;;;;;;;;;21.80;32.70;;;;;;462601;254;1266;-73
2021/04/28 09:52:53;;;;;;;;;;;21.80;32.80;;;;;;458299;259;1096;-73
2021/04/28 09:54:54;;;;;;;;;;;21.80;32.70;;;;;;462864;255;1100;-73
2021/04/28 09:56:55;;;;;;;;;;;21.80;32.80;;;;;;458539;256;1283;-73
2021/04/28 09:58:57;;;;;;;;;;;21.70;32.80;;;;;;462340;257;2156;-73
2021/04/28 10:00:58;;;;;;;;;;;21.70;32.80;;;;;;466404;255;1243;-73
2021/04/28 10:02:59;;;;;;;;;;;21.80;32.80;;;;;;462347;257;1113;-73
2021/04/28 10:05:00;;;;;;;;;;;21.80;32.70;;;;;;466549;255;985;-73
2021/04/28 10:07:02;;;;;;;;;;;21.80;32.80;;;;;;462811;255;1163;-73
2021/04/28 10:09:03;;;;;;;;;;;21.90;32.90;;;;;;458443;259;1058;-73
2021/04/28 10:11:04;;;;;;;;;;;21.80;32.90;;;;;;462370;255;1194;-73
2021/04/28 10:13:05;;;;;;;;;;;21.90;32.90;;;;;;466460;255;1010;-73
2021/04/28 10:15:07;;;;;;;;;;;21.90;32.70;;;;;;458380;258;1209;-73
2021/04/28 10:17:08;;;;;;;;;;;21.90;32.70;;;;;;462318;254;1270;-73
2021/04/28 10:19:09;;;;;;;;;;;21.90;32.70;;;;;;466583;255;2200;-73
2021/04/28 10:21:11;;;;;;;;;;;22.00;32.70;;;;;;458479;256;1233;-73
2021/04/28 10:23:12;;;;;;;;;;;21.90;32.70;;;;;;462557;257;1056;-73
2021/04/28 10:25:14;;;;;;;;;;;21.90;32.70;;;;;;466506;255;968;-73
2021/04/28 10:27:17;;;;;;;;;;;21.90;32.70;;;;;;458401;259;1202;-73
2021/04/28 10:29:18;;;;;;;;;;;21.90;32.70;;;;;;462202;257;1341;-73
2021/04/28 10:31:19;;;;;;;;;;;21.90;32.80;;;;;;466269;253;1388;-73
2021/04/28 10:33:20;;;;;;;;;;;21.90;32.70;;;;;;458416;258;1499;-73
2021/04/28 10:35:22;;;;;;;;;;;21.90;32.60;;;;;;462376;257;1045;-73
2021/04/28 10:37:23;;;;;;;;;;;21.90;32.60;;;;;;466082;255;1343;-73
2021/04/28 10:39:24;;;;;;;;;;;21.90;32.50;;;;;;462479;257;2182;-73
2021/04/28 10:41:25;;;;;;;;;;;21.90;32.60;;;;;;458208;256;1799;-73
2021/04/28 10:43:26;;;;;;;;;;;21.90;32.70;;;;;;462353;257;1319;-73
2021/04/28 10:45:28;;;;;;;;;;;21.90;32.60;;;;;;466378;255;1324;-73
2021/04/28 10:47:29;;;;;;;;;;;22.00;32.50;;;;;;458555;258;1301;-73
2021/04/28 10:49:30;;;;;;;;;;;22.00;32.40;;;;;;462427;257;1055;-73
2021/04/28 10:51:31;;;;;;;;;;;22.00;32.40;;;;;;466531;255;1206;-73
2021/04/28 10:53:33;;;;;;;;;;;22.00;32.30;;;;;;462794;256;1093;-73
2021/04/28 10:55:34;;;;;;;;;;;21.90;32.20;;;;;;458386;260;1138;-73
2021/04/28 10:57:36;;;;;;;;;;;21.90;32.10;;;;;;462543;253;1147;-73
2021/04/28 10:59:37;;;;;;;;;;;22.00;32.10;;;;;;466492;255;2174;-73
2021/04/28 11:01:38;;;;;;;;;;;22.00;32.10;;;;;;458431;256;1106;-73
2021/04/28 11:03:39;;;;;;;;;;;22.00;32.00;;;;;;463076;257;1096;-73
2021/04/28 11:05:41;;;;;;;;;;;22.00;31.90;;;;;;466596;255;1327;-73
2021/04/28 11:07:42;;;;;;;;;;;22.00;31.90;;;;;;458597;259;1076;-73
2021/04/28 11:09:43;;;;;;;;;;;22.00;31.70;;;;;;462791;254;1050;-73
2021/04/28 11:11:45;;;;;;;;;;;22.10;31.70;;;;;;458312;259;1225;-73
2021/04/28 11:13:46;;;;;;;;;;;22.10;31.80;;;;;;462367;257;1215;-73
2021/04/28 11:15:48;;;;;;;;;;;22.00;31.90;;;;;;466465;255;1208;-73
2021/04/28 11:17:49;;;;;;;;;;;22.00;31.90;;;;;;458500;259;1245;-73
2021/04/28 11:19:51;;;;;;;;;;;22.00;31.90;;;;;;462407;257;2186;-73
2021/04/28 11:21:52;;;;;;;;;;;22.10;32.00;;;;;;466512;252;1196;-73
2021/04/28 11:23:54;;;;;;;;;;;22.10;31.90;;;;;;458385;258;1065;-73
2021/04/28 11:25:55;;;;;;;;;;;22.10;31.80;;;;;;462265;257;1253;-73
2021/04/28 11:27:56;;;;;;;;;;;22.10;31.90;;;;;;466933;255;955;-73
2021/04/28 11:29:57;;;;;;;;;;;22.10;31.80;;;;;;458440;259;1202;-73
2021/04/28 11:31:59;;;;;;;;;;;22.10;31.70;;;;;;462559;255;1425;-73
2021/04/28 11:34:00;;;;;;;;;;;22.20;31.60;;;;;;466520;255;1232;-73
2021/04/28 11:36:02;;;;;;;;;;;22.20;31.60;;;;;;458335;259;1364;-73
2021/04/28 11:38:02;;;;;;;;;;;22.10;31.60;;;;;;462520;253;1360;-73
2021/04/28 11:40:04;;;;;;;;;;;22.20;31.60;;;;;;466667;255;2177;-73
2021/04/28 11:42:05;;;;;;;;;;;22.20;31.70;;;;;;462812;254;1187;-73
2021/04/28 11:44:06;;;;;;;;;;;22.00;31.60;;;;;;458424;259;1014;-73
2021/04/28 11:46:08;;;;;;;;;;;22.00;31.70;;;;;;462195;254;1208;-73
2021/04/28 11:48:09;;;;;;;;;;;22.10;31.70;;;;;;466450;255;1124;-73
2021/04/28 11:50:10;;;;;;;;;;;22.00;31.70;;;;;;458404;258;1013;-73
2021/04/28 11:52:11;;;;;;;;;;;22.10;31.70;;;;;;462491;257;1132;-73
2021/04/28 11:54:13;;;;;;;;;;;22.00;31.70;;;;;;466370;255;1114;-73
2021/04/28 11:56:14;;;;;;;;;;;22.00;31.70;;;;;;458519;259;1200;-73